createdAt,value
2022-08-23T00:02:27.761Z,100397.78
2022-08-23T00:05:08.144Z,100410.38
2022-08-23T00:07:41.805Z,100406.38
2022-08-23T00:10:12.115Z,100399.44
2022-08-23T00:12:40.394Z,100408.94
2022-08-23T00:15:09.670Z,100407.50
2022-08-23T00:17:37.806Z,100399.56
2022-08-23T00:20:12.244Z,100389.72
2022-08-23T00:22:40.188Z,100384.56
2022-08-23T00:25:10.695Z,100395.69
2022-08-23T00:27:38.477Z,100407.63
2022-08-23T00:30:08.464Z,100407.41
2022-08-23T00:32:38.494Z,100404.09
2022-08-23T00:35:07.504Z,100399.31
2022-08-23T00:37:36.492Z,100402.34
2022-08-23T00:40:07.303Z,100390.56
2022-08-23T00:42:59.356Z,100394.75
2022-08-23T00:45:55.422Z,100388.47
2022-08-23T00:48:23.194Z,100396.22
2022-08-23T00:51:09.092Z,100382.56
2022-08-23T00:53:57.936Z,100388.41
2022-08-23T00:56:42.276Z,100394.88
2022-08-23T00:59:21.709Z,100379.56
2022-08-23T01:01:53.643Z,100394.19
2022-08-23T01:04:25.511Z,100376.06
2022-08-23T01:07:08.517Z,100375.19
2022-08-23T01:09:40.146Z,100382.13
2022-08-23T01:12:30.403Z,100370.16
2022-08-23T01:15:07.031Z,100372.91
2022-08-23T01:17:45.568Z,100374.44
2022-08-23T01:20:19.603Z,100376.09
2022-08-23T01:23:02.388Z,100387.00
2022-08-23T01:25:33.219Z,100378.47
2022-08-23T01:28:01.357Z,100377.63
2022-08-23T01:30:32.741Z,100380.38
2022-08-23T01:33:05.045Z,100390.75
2022-08-23T01:35:49.807Z,100380.25
2022-08-23T01:38:17.281Z,100382.38
2022-08-23T01:40:46.460Z,100391.44
2022-08-23T01:43:14.077Z,100384.50
2022-08-23T01:45:43.239Z,100383.41
2022-08-23T01:48:13.846Z,100389.72
2022-08-23T01:50:41.553Z,100382.28
2022-08-23T01:53:09.051Z,100384.13
2022-08-23T01:55:37.293Z,100393.19
2022-08-23T01:58:08.151Z,100386.34
2022-08-23T02:00:42.144Z,100388.47
2022-08-23T02:03:12.593Z,100394.25
2022-08-23T02:05:42.875Z,100389.50
2022-08-23T02:08:30.879Z,100391.41
2022-08-23T02:10:59.936Z,100392.47
2022-08-23T02:13:27.395Z,100387.03
2022-08-23T02:15:58.502Z,100393.97
2022-08-23T02:18:26.280Z,100388.94
2022-08-23T02:20:53.754Z,100393.78
2022-08-23T02:23:22.786Z,100395.63
2022-08-23T02:25:54.430Z,100386.19
2022-08-23T02:28:24.176Z,100392.91
2022-08-23T02:30:52.418Z,100382.00
2022-08-23T02:33:20.011Z,100386.16
2022-08-23T02:35:48.268Z,100395.41
2022-08-23T02:38:18.327Z,100391.59
2022-08-23T02:40:46.874Z,100393.09
2022-08-23T02:43:20.998Z,100396.72
2022-08-23T02:45:50.468Z,100393.09
2022-08-23T02:48:17.978Z,100386.63
2022-08-23T02:51:00.473Z,100393.47
2022-08-23T02:53:27.776Z,100388.03
2022-08-23T02:55:55.203Z,100397.50
2022-08-23T02:58:23.468Z,100397.50
2022-08-23T03:00:51.432Z,100383.63
2022-08-23T03:03:22.435Z,100388.69
2022-08-23T03:05:50.668Z,100385.75
2022-08-23T03:08:20.612Z,100384.25
2022-08-23T03:10:52.376Z,100397.91
2022-08-23T03:13:20.970Z,100389.19
2022-08-23T03:15:50.059Z,100400.50
2022-08-23T03:18:17.573Z,100390.97
2022-08-23T03:20:45.034Z,100389.06
2022-08-23T03:23:13.774Z,100400.22
2022-08-23T03:25:41.221Z,100393.34
2022-08-23T03:28:20.416Z,100392.91
2022-08-23T03:30:47.688Z,100395.19
2022-08-23T03:33:14.902Z,100398.81
2022-08-23T03:35:43.019Z,100403.84
2022-08-23T03:38:14.024Z,100414.19
2022-08-23T03:40:43.673Z,100413.94
2022-08-23T03:43:11.787Z,100406.75
2022-08-23T03:45:39.112Z,100418.56
2022-08-23T03:48:07.459Z,100413.56
2022-08-23T03:50:36.206Z,100415.22
2022-08-23T03:53:03.918Z,100411.78
2022-08-23T03:55:31.562Z,100417.09
2022-08-23T03:58:00.981Z,100406.00
2022-08-23T04:00:28.463Z,100412.72
2022-08-23T04:02:55.997Z,100410.59
2022-08-23T04:05:25.597Z,100410.59
2022-08-23T04:08:10.746Z,100409.91
2022-08-23T04:10:41.485Z,100415.56
2022-08-23T04:13:10.953Z,100410.16
2022-08-23T04:15:38.819Z,100415.16
2022-08-23T04:18:09.367Z,100401.97
2022-08-23T04:20:38.100Z,100408.44
2022-08-23T04:23:06.167Z,100408.38
2022-08-23T04:25:45.754Z,100411.78
2022-08-23T04:28:13.353Z,100415.53
2022-08-23T04:30:40.786Z,100419.97
2022-08-23T04:33:12.498Z,100405.06
2022-08-23T04:35:41.586Z,100411.78
2022-08-23T04:38:24.314Z,100412.59
2022-08-23T04:41:13.476Z,100412.00
2022-08-23T04:43:44.088Z,100421.03
2022-08-23T04:46:15.562Z,100409.91
2022-08-23T04:48:46.277Z,100418.31
2022-08-23T04:51:14.915Z,100420.81
2022-08-23T04:53:43.746Z,100420.19
2022-08-23T04:56:31.157Z,100419.53
2022-08-23T04:58:58.725Z,100414.75
2022-08-23T05:01:26.813Z,100407.59
2022-08-23T05:03:55.573Z,100413.03
2022-08-23T05:06:25.305Z,100411.41
2022-08-23T05:08:53.180Z,100406.38
2022-08-23T05:11:20.762Z,100408.28
2022-08-23T05:13:49.742Z,100399.22
2022-08-23T05:16:18.037Z,100399.66
2022-08-23T05:18:54.486Z,100413.75
2022-08-23T05:21:24.601Z,100401.34
2022-08-23T05:23:54.571Z,100417.97
2022-08-23T05:26:25.078Z,100411.88
2022-08-23T05:28:52.387Z,100422.38
2022-08-23T05:31:26.128Z,100421.50
2022-08-23T05:33:56.790Z,100420.28
2022-08-23T05:36:30.968Z,100419.84
2022-08-23T05:38:58.682Z,100400.25
2022-08-23T05:41:31.154Z,100410.19
2022-08-23T05:44:09.038Z,100412.31
2022-08-23T05:46:37.822Z,100409.41
2022-08-23T05:49:28.455Z,100410.72
2022-08-23T05:51:56.861Z,100411.53
2022-08-23T05:54:27.948Z,100409.84
2022-08-23T05:57:11.733Z,100417.81
2022-08-23T05:59:40.745Z,100426.66
2022-08-23T06:02:08.035Z,100421.00
2022-08-23T06:04:36.178Z,100425.06
2022-08-23T06:07:03.953Z,100418.34
2022-08-23T06:09:31.226Z,100432.41
2022-08-23T06:11:59.453Z,100424.03
2022-08-23T06:14:26.794Z,100422.94
2022-08-23T06:16:56.207Z,100426.31
2022-08-23T06:19:27.181Z,100417.06
2022-08-23T06:22:12.846Z,100425.06
2022-08-23T06:24:42.983Z,100420.03
2022-08-23T06:27:16.174Z,100434.13
2022-08-23T06:29:44.564Z,100438.94
2022-08-23T06:32:35.289Z,100437.69
2022-08-23T06:35:39.451Z,100441.91
2022-08-23T06:38:15.415Z,100446.09
2022-08-23T06:41:06.049Z,100446.09
2022-08-23T06:43:43.161Z,100452.22
2022-08-23T06:46:30.407Z,100445.66
2022-08-23T06:48:58.739Z,100454.72
2022-08-23T06:51:29.687Z,100450.50
2022-08-23T06:54:08.421Z,100459.56
2022-08-23T06:56:55.555Z,100467.38
2022-08-23T07:02:14.817Z,100463.25
2022-08-23T07:04:58.397Z,100457.41
2022-08-23T07:07:41.353Z,100451.13
2022-08-23T07:10:14.486Z,100451.56
2022-08-23T07:12:43.005Z,100457.22
2022-08-23T07:15:14.154Z,100458.72
2022-08-23T07:17:44.925Z,100455.34
2022-08-23T07:20:13.995Z,100457.00
2022-08-23T07:22:44.658Z,100459.91
2022-08-23T07:25:13.003Z,100470.44
2022-08-23T07:27:41.968Z,100475.09
2022-08-23T07:30:10.543Z,100469.53
2022-08-23T07:32:40.724Z,100474.25
2022-08-23T07:35:22.507Z,100487.75
2022-08-23T07:37:52.879Z,100487.94
2022-08-23T07:40:21.210Z,100487.09
2022-08-23T07:42:52.677Z,100490.25
2022-08-23T07:45:23.039Z,100486.06
2022-08-23T07:47:54.424Z,100468.59
2022-08-23T07:50:24.543Z,100478.94
2022-08-23T07:52:59.389Z,100482.72
2022-08-23T07:55:26.834Z,100487.72
2022-08-23T07:58:04.026Z,100484.16
2022-08-23T08:00:36.836Z,100489.66
2022-08-23T08:03:26.794Z,100487.16
2022-08-23T08:06:13.206Z,100493.22
2022-08-23T08:08:42.906Z,100485.63
2022-08-23T08:11:13.163Z,100489.44
2022-08-23T08:13:44.281Z,100488.50
2022-08-23T08:16:22.053Z,100486.34
2022-08-23T08:18:50.004Z,100509.97
2022-08-23T08:21:41.884Z,100498.75
2022-08-23T08:24:20.782Z,100501.50
2022-08-23T08:26:52.286Z,100503.41
2022-08-23T08:29:20.438Z,100504.22
2022-08-23T08:31:53.622Z,100508.25
2022-08-23T08:34:21.733Z,100508.69
2022-08-23T08:36:53.937Z,100515.41
2022-08-23T08:39:29.487Z,100505.88
2022-08-23T08:42:12.132Z,100514.75
2022-08-23T08:44:55.453Z,100506.13
2022-08-23T08:47:41.191Z,100505.72
2022-08-23T08:50:53.077Z,100499.44
2022-08-23T08:53:34.413Z,100499.44
2022-08-23T08:56:25.188Z,100499.78
2022-08-23T08:59:21.879Z,100498.13
2022-08-23T09:01:49.999Z,100494.22
2022-08-23T09:04:25.385Z,100487.69
2022-08-23T09:07:08.119Z,100487.09
2022-08-23T09:09:53.822Z,100486.66
2022-08-23T09:15:23.756Z,100482.94
2022-08-23T09:17:57.966Z,100490.44
2022-08-23T09:20:32.879Z,100483.47
2022-08-23T09:23:06.736Z,100491.63
2022-08-23T09:25:35.575Z,100495.63
2022-08-23T09:28:09.342Z,100503.66
2022-08-23T09:30:50.913Z,100497.00
2022-08-23T09:33:46.767Z,100495.44
2022-08-23T09:36:34.173Z,100504.47
2022-08-23T09:39:05.935Z,100512.88
2022-08-23T09:41:41.674Z,100497.97
2022-08-23T09:44:16.914Z,100495.84
2022-08-23T09:46:44.413Z,100496.38
2022-08-23T09:49:27.499Z,100502.25
2022-08-23T09:52:11.171Z,100500.06
2022-08-23T09:54:47.439Z,100501.28
2022-08-23T09:57:27.906Z,100497.78
2022-08-23T10:00:00.810Z,100511.31
2022-08-23T10:02:33.573Z,100506.44
2022-08-23T10:05:15.753Z,100514.97
2022-08-23T10:07:53.570Z,100506.53
2022-08-23T10:10:43.799Z,100507.72
2022-08-23T10:13:18.649Z,100497.88
2022-08-23T10:16:26.113Z,100506.59
2022-08-23T10:19:23.544Z,100508.38
2022-08-23T10:22:08.500Z,100504.47
2022-08-23T10:25:12.531Z,100505.75
2022-08-23T10:28:39.352Z,100511.38
2022-08-23T10:31:41.394Z,100510.06
2022-08-23T10:34:50.367Z,100509.69
2022-08-23T10:37:56.239Z,100520.16
2022-08-23T10:40:43.382Z,100513.66
2022-08-23T10:43:15.295Z,100513.03
2022-08-23T10:45:46.978Z,100509.28
2022-08-23T10:48:33.322Z,100506.59
2022-08-23T10:51:18.779Z,100514.94
2022-08-23T10:54:04.232Z,100514.91
2022-08-23T10:56:31.964Z,100503.38
2022-08-23T10:59:14.649Z,100513.22
2022-08-23T11:02:09.670Z,100511.50
2022-08-23T11:04:49.113Z,100512.84
2022-08-23T11:07:42.966Z,100515.31
2022-08-23T11:10:29.953Z,100512.63
2022-08-23T11:12:58.790Z,100513.22
2022-08-23T11:15:33.376Z,100506.59
2022-08-23T11:18:04.079Z,100509.09
2022-08-23T11:20:52.188Z,100513.03
2022-08-23T11:23:49.346Z,100513.47
2022-08-23T11:26:23.026Z,100506.84
2022-08-23T11:28:51.879Z,100500.06
2022-08-23T11:31:34.919Z,100507.13
2022-08-23T11:34:11.114Z,100498.31
2022-08-23T11:36:39.204Z,100507.31
2022-08-23T11:39:12.946Z,100504.09
2022-08-23T11:41:56.143Z,100497.97
2022-08-23T11:44:38.350Z,100500.78
2022-08-23T11:47:11.285Z,100495.72
2022-08-23T11:49:51.386Z,100505.78
2022-08-23T11:52:47.366Z,100504.63
2022-08-23T11:55:46.479Z,100503.47
2022-08-23T11:58:44.619Z,100504.69
2022-08-23T12:01:15.585Z,100498.94
2022-08-23T12:03:52.562Z,100503.91
2022-08-23T12:06:21.467Z,100503.28
2022-08-23T12:09:01.922Z,100501.91
2022-08-23T12:11:55.107Z,100499.72
2022-08-23T12:14:31.199Z,100505.59
2022-08-23T12:17:04.493Z,100507.72
2022-08-23T12:19:40.538Z,100498.53
2022-08-23T12:22:13.621Z,100500.72
2022-08-23T12:24:54.333Z,100509.78
2022-08-23T12:27:41.405Z,100506.81
2022-08-23T12:30:46.146Z,100500.41
2022-08-23T12:33:39.900Z,100503.28
2022-08-23T12:36:22.969Z,100496.94
2022-08-23T12:39:09.055Z,100506.56
2022-08-23T12:41:54.207Z,100510.41
2022-08-23T12:44:24.702Z,100498.50
2022-08-23T12:46:52.598Z,100491.84
2022-08-23T12:49:30.547Z,100496.94
2022-08-23T12:52:01.886Z,100495.03
2022-08-23T12:54:41.650Z,100488.78
2022-08-23T12:57:15.950Z,100490.75
2022-08-23T13:00:17.034Z,100492.06
2022-08-23T13:03:08.555Z,100496.16
2022-08-23T13:05:43.702Z,100486.31
2022-08-23T13:08:34.380Z,100489.03
2022-08-23T13:11:08.098Z,100493.81
2022-08-23T13:13:39.733Z,100487.56
2022-08-23T13:16:27.307Z,100487.09
2022-08-23T13:19:10.347Z,100475.16
2022-08-23T13:21:40.071Z,100483.78
2022-08-23T13:24:39.146Z,100484.63
2022-08-23T13:27:14.702Z,100487.00
2022-08-23T13:29:54.624Z,100495.59
2022-08-23T13:32:49.213Z,100501.06
2022-08-23T13:35:24.199Z,100504.00
2022-08-23T13:37:55.192Z,100490.94
2022-08-23T13:40:30.491Z,100491.25
2022-08-23T13:43:02.357Z,100477.97
2022-08-23T13:45:35.619Z,100471.28
2022-08-23T13:48:05.473Z,100485.19
2022-08-23T13:50:36.282Z,100485.09
2022-08-23T13:53:20.857Z,100473.34
2022-08-23T13:55:54.464Z,100475.78
2022-08-23T13:58:39.890Z,100472.94
2022-08-23T14:01:17.313Z,100486.06
2022-08-23T14:03:44.602Z,100493.25
2022-08-23T14:06:12.252Z,100500.00
2022-08-23T14:08:39.492Z,100499.47
2022-08-23T14:11:07.090Z,100490.81
2022-08-23T14:13:36.793Z,100485.44
2022-08-23T14:21:43.029Z,100500.31
2022-08-23T14:24:10.590Z,100487.94
2022-08-23T14:26:38.437Z,100496.53
2022-08-23T14:29:22.357Z,100492.97
2022-08-23T14:31:51.925Z,100479.47
2022-08-23T14:34:20.332Z,100484.34
2022-08-23T14:39:35.816Z,100484.38
2022-08-23T14:42:04.353Z,100469.84
2022-08-23T14:44:35.708Z,100467.38
2022-08-23T14:47:05.916Z,100471.97
2022-08-23T14:49:34.021Z,100467.75
2022-08-23T14:52:02.006Z,100467.53
2022-08-23T14:54:29.646Z,100472.69
2022-08-23T14:56:57.138Z,100479.19
2022-08-23T14:59:24.529Z,100485.31
2022-08-23T15:01:53.752Z,100493.28
2022-08-23T15:04:23.301Z,100488.16
2022-08-23T15:09:39.007Z,100484.94
2022-08-23T15:12:57.336Z,100487.25
2022-08-23T15:14:56.989Z,100504.50
2022-08-23T15:17:30.306Z,100497.66
2022-08-23T15:19:58.985Z,100498.88
2022-08-23T15:22:26.260Z,100512.03
2022-08-23T15:24:53.493Z,100517.19
2022-08-23T15:27:22.413Z,100513.38
2022-08-23T15:29:49.807Z,100530.44
2022-08-23T15:32:22.214Z,100525.25
2022-08-23T15:34:50.693Z,100527.91
2022-08-23T15:37:20.827Z,100531.34
2022-08-23T15:39:48.476Z,100532.03
2022-08-23T15:42:20.560Z,100541.34
2022-08-23T15:44:49.115Z,100537.34
2022-08-23T15:47:27.945Z,100537.09
2022-08-23T15:49:55.959Z,100521.56
2022-08-23T15:52:23.418Z,100517.59
2022-08-23T15:54:50.790Z,100517.38
2022-08-23T15:57:23.764Z,100526.47
2022-08-23T15:59:57.314Z,100532.78
2022-08-23T16:02:24.830Z,100525.00
2022-08-23T16:04:52.075Z,100510.50
2022-08-23T16:07:19.538Z,100522.03
2022-08-23T16:09:47.274Z,100524.56
2022-08-23T16:12:14.585Z,100533.81
2022-08-23T16:14:42.075Z,100530.22
2022-08-23T16:17:09.976Z,100531.28
2022-08-23T16:19:37.147Z,100534.03
2022-08-23T16:22:05.143Z,100526.44
2022-08-23T16:24:32.454Z,100525.19
2022-08-23T16:26:59.667Z,100528.97
2022-08-23T16:29:32.001Z,100520.13
2022-08-23T16:31:59.285Z,100529.81
2022-08-23T16:34:26.932Z,100526.44
2022-08-23T16:37:02.075Z,100525.81
2022-08-23T16:39:29.398Z,100526.66
2022-08-23T16:41:56.908Z,100521.19
2022-08-23T16:44:24.517Z,100520.97
2022-08-23T16:46:52.076Z,100514.88
2022-08-23T16:49:19.921Z,100510.06
2022-08-23T16:51:47.526Z,100527.28
2022-08-23T16:54:16.076Z,100510.03
2022-08-23T16:56:43.618Z,100520.53
2022-08-23T16:59:12.711Z,100516.34
2022-08-23T17:02:10.431Z,100525.59
2022-08-23T17:04:38.530Z,100530.03
2022-08-23T17:07:06.468Z,100528.75
2022-08-23T17:09:33.677Z,100536.94
2022-08-23T17:12:03.242Z,100543.25
2022-08-23T17:14:30.438Z,100545.38
2022-08-23T17:16:57.687Z,100550.63
2022-08-23T17:19:25.109Z,100556.72
2022-08-23T17:21:54.339Z,100559.66
2022-08-23T17:24:21.589Z,100566.78
2022-08-23T17:26:49.785Z,100573.50
2022-08-23T17:29:17.158Z,100583.63
2022-08-23T17:31:47.772Z,100590.16
2022-08-23T17:34:15.317Z,100583.63
2022-08-23T17:36:50.161Z,100593.28
2022-08-23T17:39:20.767Z,100593.91
2022-08-23T17:41:48.556Z,100601.84
2022-08-23T17:44:16.058Z,100612.22
2022-08-23T17:46:45.937Z,100613.84
2022-08-23T17:49:15.478Z,100645.78
2022-08-23T17:51:44.317Z,100659.06
2022-08-23T17:54:16.106Z,100683.03
2022-08-23T17:56:49.864Z,100683.59
2022-08-23T17:59:20.124Z,100700.59
2022-08-23T18:01:47.702Z,100697.97
2022-08-23T18:04:14.975Z,100699.25
2022-08-23T18:06:42.436Z,100696.47
2022-08-23T18:09:09.696Z,100692.88
2022-08-23T18:11:37.654Z,100680.00
2022-08-23T18:14:05.214Z,100684.63
2022-08-23T18:16:35.606Z,100663.59
2022-08-23T18:19:11.212Z,100666.19
2022-08-23T18:21:42.505Z,100652.75
2022-08-23T18:24:10.468Z,100653.84
2022-08-23T18:26:56.820Z,100653.66
2022-08-23T18:29:24.904Z,100640.00
2022-08-23T18:31:52.285Z,100622.78
2022-08-23T18:34:20.153Z,100619.22
2022-08-23T18:36:48.032Z,100618.34
2022-08-23T18:39:16.113Z,100610.34
2022-08-23T18:41:43.453Z,100597.06
2022-08-23T18:44:11.887Z,100602.50
2022-08-23T18:46:42.556Z,100595.13
2022-08-23T18:49:11.690Z,100601.94
2022-08-23T18:51:40.592Z,100591.84
2022-08-23T18:54:08.598Z,100592.25
2022-08-23T18:56:35.881Z,100591.63
2022-08-23T18:59:04.550Z,100581.72
2022-08-23T19:01:35.898Z,100587.84
2022-08-23T19:04:04.490Z,100586.38
2022-08-23T19:06:32.109Z,100584.22
2022-08-23T19:09:01.083Z,100587.56
2022-08-23T19:11:29.330Z,100571.78
2022-08-23T19:13:58.549Z,100569.69
2022-08-23T19:16:26.776Z,100573.72
2022-08-23T19:18:55.262Z,100563.59
2022-08-23T19:21:25.205Z,100563.38
2022-08-23T19:23:55.513Z,100562.31
2022-08-23T19:26:26.324Z,100571.09
2022-08-23T19:28:53.748Z,100570.72
2022-08-23T19:31:20.986Z,100580.34
2022-08-23T19:33:49.217Z,100577.00
2022-08-23T19:36:42.689Z,100570.28
2022-08-23T19:39:06.095Z,100594.88
2022-08-23T19:41:33.940Z,100594.66
2022-08-23T19:44:01.164Z,100597.31
2022-08-23T19:46:28.652Z,100606.41
2022-08-23T19:48:56.117Z,100611.72
2022-08-23T19:51:24.698Z,100602.63
2022-08-23T19:54:04.941Z,100611.28
2022-08-23T19:56:48.707Z,100622.78
2022-08-23T19:59:21.327Z,100632.69
2022-08-23T20:01:49.905Z,100635.41
2022-08-23T20:04:18.477Z,100633.75
2022-08-23T20:06:46.453Z,100638.38
2022-08-23T20:09:13.899Z,100628.72
2022-08-23T20:11:42.094Z,100633.81
2022-08-23T20:14:10.130Z,100630.06
2022-08-23T20:16:39.024Z,100635.06
2022-08-23T20:19:10.060Z,100627.47
2022-08-23T20:21:38.456Z,100625.59
2022-08-23T20:24:09.077Z,100625.41
2022-08-23T20:26:41.150Z,100615.31
2022-08-23T20:29:14.351Z,100630.09
2022-08-23T20:31:51.371Z,100621.66
2022-08-23T20:34:19.413Z,100622.31
2022-08-23T20:36:47.275Z,100622.69
2022-08-23T20:39:17.450Z,100626.25
2022-08-23T20:41:48.370Z,100632.59
2022-08-23T20:44:15.629Z,100629.22
2022-08-23T20:46:47.268Z,100631.72
2022-08-23T20:49:17.637Z,100630.00
2022-08-23T20:51:45.430Z,100631.31
2022-08-23T20:54:13.012Z,100630.50
2022-08-23T20:56:40.874Z,100621.84
2022-08-23T20:59:08.747Z,100629.47
2022-08-23T21:01:36.600Z,100626.72
2022-08-23T21:04:06.856Z,100620.84
2022-08-23T21:06:48.474Z,100618.09
2022-08-23T21:09:19.745Z,100614.44
2022-08-23T21:11:48.190Z,100614.84
2022-08-23T21:14:17.082Z,100623.66
2022-08-23T21:16:46.164Z,100617.31
2022-08-23T21:19:14.249Z,100616.88
2022-08-23T21:21:42.143Z,100611.78
2022-08-23T21:24:11.339Z,100618.25
2022-08-23T21:26:39.616Z,100617.75
2022-08-23T21:29:08.549Z,100615.72
2022-08-23T21:31:36.404Z,100614.63
2022-08-23T21:34:04.426Z,100618.41
2022-08-23T21:36:32.081Z,100616.91
2022-08-23T21:38:59.617Z,100610.03
2022-08-23T21:41:39.173Z,100614.22
2022-08-23T21:44:10.197Z,100604.91
2022-08-23T21:46:37.701Z,100614.34
2022-08-23T21:49:05.724Z,100607.38
2022-08-23T21:51:35.020Z,100621.31
2022-08-23T21:54:03.399Z,100608.25
2022-08-23T21:56:31.242Z,100610.16
2022-08-23T21:58:59.872Z,100623.16
2022-08-23T22:01:27.639Z,100616.00
2022-08-23T22:03:57.234Z,100617.25
2022-08-23T22:06:24.974Z,100619.28
2022-08-23T22:08:52.184Z,100622.81
2022-08-23T22:11:20.441Z,100631.81
2022-08-23T22:13:47.874Z,100622.19
2022-08-23T22:16:15.220Z,100620.53
2022-08-23T22:18:42.986Z,100631.56
2022-08-23T22:21:10.735Z,100610.47
2022-08-23T22:23:42.020Z,100622.53
2022-08-23T22:26:09.526Z,100615.53
2022-08-23T22:28:37.026Z,100623.19
2022-08-23T22:31:07.179Z,100622.28
2022-08-23T22:33:35.252Z,100612.53
2022-08-23T22:36:09.721Z,100621.72
2022-08-23T22:38:38.423Z,100616.66
2022-08-23T22:41:06.405Z,100613.28
2022-08-23T22:43:33.698Z,100622.09
2022-08-23T22:46:03.506Z,100619.19
2022-08-23T22:48:32.838Z,100613.63
2022-08-23T22:51:06.307Z,100599.59
2022-08-23T22:53:36.055Z,100599.59
2022-08-23T22:56:05.396Z,100600.66
2022-08-23T22:58:33.454Z,100610.63
2022-08-23T23:01:02.650Z,100612.28
2022-08-23T23:03:34.708Z,100611.72
2022-08-23T23:06:03.274Z,100610.63
2022-08-23T23:08:30.679Z,100604.50
2022-08-23T23:11:01.017Z,100603.31
2022-08-23T23:13:31.550Z,100607.81
2022-08-23T23:16:03.295Z,100614.28
2022-08-23T23:18:31.238Z,100610.25
2022-08-23T23:21:01.232Z,100613.75
2022-08-23T23:23:30.479Z,100611.03
2022-08-23T23:25:58.869Z,100616.81
2022-08-23T23:28:26.174Z,100625.09
2022-08-23T23:30:54.688Z,100623.13
2022-08-23T23:33:22.641Z,100616.38
2022-08-23T23:35:51.864Z,100620.97
2022-08-23T23:38:19.337Z,100616.47
2022-08-23T23:40:46.879Z,100618.31
2022-08-23T23:43:14.135Z,100613.19
2022-08-23T23:45:42.353Z,100627.72
2022-08-23T23:48:10.330Z,100618.03
2022-08-23T23:50:42.593Z,100624.34
2022-08-23T23:53:12.920Z,100613.66
2022-08-23T23:55:40.464Z,100626.22
2022-08-23T23:58:07.732Z,100621.25
